ADDS METAR Data INFO
IDs: Format: Raw Decoded Include TAF

Data at: 0457 UTC 23 May 2017

K11R 230435Z AUTO 00000KT 10SM OVC017 21/19 A2990 RMK AO2 T02110194
K11R 230415Z AUTO 00000KT 10SM OVC017 21/19 A2990 RMK AO2 T02100192
K11R 230355Z AUTO 00000KT 10SM OVC017 21/19 A2991 RMK AO2 T02100190
K11R 230335Z AUTO 00000KT 10SM BKN019 21/19 A2990 RMK AO2 T02100187
K11R 230315Z AUTO 00000KT 10SM BKN019 21/19 A2990 RMK AO2 T02130186
K11R 230255Z AUTO 03003KT 10SM OVC019 22/19 A2990 RMK AO2 T02160186
K11R 230235Z AUTO 00000KT 10SM OVC017 22/19 A2990 RMK AO2 T02200187
K11R 230215Z AUTO 06003KT 10SM OVC017 22/19 A2990 RMK AO2 T02180187
K11R 230155Z AUTO 00000KT 10SM OVC017 22/19 A2989 RMK AO2 T02200186
K11R 230135Z AUTO 02004KT 10SM OVC017 22/19 A2990 RMK AO2 T02200185
K11R 230115Z AUTO 03004KT 10SM OVC015 22/18 A2990 RMK AO2 T02200184
K11R 230055Z AUTO 03003KT 10SM OVC015 22/19 A2990 RMK AO2 T02210187
K11R 230035Z AUTO 02005KT 10SM OVC015 22/19 A2989 RMK AO2 T02230186
K11R 230015Z AUTO 04004KT 10SM OVC015 23/19 A2989 RMK AO2 T02250187
K11R 222355Z AUTO 03004KT 10SM BKN015 23/19 A2989 RMK AO2 LTG DSNT NW T02250187 10242 20204
K11R 222335Z AUTO 01005KT 10SM OVC017 23/19 A2989 RMK AO2 T02320188
K11R 222315Z AUTO 02005KT 10SM OVC017 23/19 A2990 RMK AO2 T02330191
K11R 222255Z AUTO 36006KT 10SM OVC017 24/19 A2990 RMK AO2 T02370191
K11R 222235Z AUTO 02006KT 10SM OVC017 24/19 A2991 RMK AO2 T02360193
K11R 222215Z AUTO 01007KT 10SM OVC019 24/19 A2991 RMK AO2 T02400194
K11R 222155Z AUTO 01005KT 10SM OVC019 24/19 A2992 RMK AO2 T02400193
K11R 222135Z AUTO 02005KT 10SM OVC017 24/20 A2992 RMK AO2 T02410195
K11R 222115Z AUTO 03004KT 10SM OVC017 24/20 A2992 RMK AO2 T02400196
K11R 222055Z AUTO 05006KT 10SM OVC015 24/20 A2993 RMK AO2 T02370195
K11R 222035Z AUTO 01006KT 10SM OVC015 24/20 A2994 RMK AO2 T02360197
K11R 222015Z AUTO 02004KT 10SM OVC013 23/20 A2994 RMK AO2 T02340199
K11R 221955Z AUTO 04007KT 10SM OVC013 23/20 A2995 RMK AO2 T02300202
K11R 221935Z AUTO 04004KT 10SM OVC011 23/20 A2996 RMK AO2 T02250200
K11R 221915Z AUTO 05007KT 10SM OVC009 23/21 A2996 RMK AO2 T02270205
K11R 221855Z AUTO 03006KT 10SM OVC009 22/21 A2997 RMK AO2 T02200205
K11R 221835Z AUTO 02006KT 10SM OVC007 21/20 A2997 RMK AO2 T02110201
K11R 221815Z AUTO 02005KT 10SM OVC007 21/20 A2998 RMK AO2 T02080202
K11R 221755Z AUTO 04005KT 10SM RA OVC005 20/20 A2999 RMK AO2 60033 T02040197 10205 20183
K11R 221735Z AUTO 04004KT 10SM OVC005 20/20 A2999 RMK AO2 LTG DSNT S T02030197
K11R 221715Z AUTO 03003KT 10SM -RA OVC007 20/20 A3000 RMK AO2 T02010196
K11R 221655Z AUTO 04006KT 10SM -DZ BKN007 OVC032 20/19 A3000 RMK AO2 P0001 T01970192
K11R 221635Z AUTO 04005KT 5SM DZ BKN007 OVC030 20/19 A3001 RMK AO2 P0001 T01950190
K11R 221615Z AUTO 05006KT 4SM DZ BKN007 OVC028 19/19 A3001 RMK AO2 T01910186
K11R 221555Z AUTO 04006KT 5SM -DZ OVC007 19/19 A3001 RMK AO2 P0001 T01920187
K11R 221535Z AUTO 36007KT 4SM DZ OVC005 19/19 A3002 RMK AO2 P0001 T01900185
K11R 221515Z AUTO 36008KT 5SM DZ OVC005 19/18 A3002 RMK AO2 P0001 T01880183
K11R 221455Z AUTO 02007KT 350V050 3SM -RA SCT007 OVC021 19/18 A3001 RMK AO2 P0001 60031 T01850180
K11R 221435Z AUTO 02007KT 10SM OVC021 19/18 A3001 RMK AO2 T01850178
K11R 221415Z AUTO 01009G17KT 10SM BKN021 OVC026 19/18 A3000 RMK AO2 T01850178
K11R 221355Z AUTO 01011G18KT 10SM BKN021 OVC027 18/18 A3000 RMK AO2 P0001 T01830178
K11R 221335Z AUTO 36011G18KT 10SM SCT005 OVC019 18/18 A3000 RMK AO2 P0001 T01830178
K11R 221315Z AUTO 35012G18KT 10SM DZ SCT005 BKN017 OVC030 19/18 A3000 RMK AO2 LTG DSNT E T01850180
K11R 221255Z AUTO 35011KT 4SM -RA SCT005 BKN015 OVC032 19/18 A3000 RMK AO2 P0029 T01870182
K11R 221235Z AUTO 33009KT 3SM +RA SCT003 OVC009 19/18 A3001 RMK AO2 LTG DSNT SE P0013 T01880183
K11R 221215Z AUTO 32014G18KT 7SM RA BKN003 OVC007 20/20 A3000 RMK AO2 P0002 T02010195
K11R 221155Z AUTO 03004KT 5SM -RA BKN003 OVC008 21/20 A2998 RMK AO2 T02050200 10207 20203
K11R 221135Z AUTO 00000KT 4SM DZ OVC003 21/20 A2999 RMK AO2 T02050200
K11R 221115Z AUTO 04003KT 2 1/2SM RA OVC007 21/20 A2998 RMK AO2 LTG DSNT SE AND NW T02050198
K11R 221055Z AUTO 04003KT 5SM BR OVC007 21/20 A2998 RMK AO2 LTG DSNT SE AND S T02050196
K11R 221035Z AUTO 01005KT 10SM OVC009 21/20 A2998 RMK AO2 LTG DSNT N AND S T02060195
K11R 221015Z AUTO 02004KT 10SM BKN009 OVC015 21/20 A2998 RMK AO2 LTG DSNT S T02050195
K11R 220955Z AUTO 02004KT 10SM SCT008 OVC016 21/20 A2999 RMK AO2 LTG DSNT NW T02060195
K11R 220935Z AUTO 03004KT 10SM SCT008 OVC017 21/20 A2999 RMK AO2 LTG DSNT SE AND S T02060195
K11R 220915Z AUTO 02004KT 10SM SCT008 BKN015 OVC028 21/20 A3000 RMK AO2 LTG DSNT SE S AND NW T02060195
K11R 220855Z AUTO 05003KT 10SM -DZ BKN008 OVC015 21/20 A3000 RMK AO2 LTG DSNT SE AND S T02070196
K11R 220835Z AUTO 03005KT 10SM -RA BKN008 OVC016 21/20 A3002 RMK AO2 LTG DSNT SE AND S T02050195
K11R 220815Z AUTO 00000KT 10SM OVC008 21/19 A3003 RMK AO2 LTG DSNT SE T02050193
K11R 220755Z AUTO 03004KT 10SM OVC008 20/19 A3003 RMK AO2 T02040193
K11R 220735Z AUTO 02003KT 10SM BKN008 OVC016 20/19 A3003 RMK AO2 LTG DSNT SE T02030191
K11R 220715Z AUTO 02004KT 10SM SCT008 OVC016 20/19 A3004 RMK AO2 T02030191
K11R 220655Z AUTO 02005KT 10SM BKN018 BKN022 OVC028 21/19 A3004 RMK AO2 T02050191
K11R 220635Z AUTO 03003KT 10SM -DZ SCT018 OVC026 21/19 A3004 RMK AO2 T02050190
K11R 220615Z AUTO 03006KT 10SM -RA BKN024 OVC030 21/19 A3004 RMK AO2 T02050190
K11R 220555Z AUTO 01007KT 10SM BKN026 OVC032 21/19 A3005 RMK AO2 T02060191 10257 20205 402950205
K11R 220535Z AUTO 02004KT 10SM OVC027 21/19 A3005 RMK AO2 T02050192
K11R 220515Z AUTO 36006KT 10SM SCT027 OVC033 21/19 A3007 RMK AO2 T02050191
K11R 220455Z AUTO 36005KT 10SM BKN031 BKN110 21/19 A3007 RMK AO2 T02060190
K11R 220435Z AUTO 36005KT 10SM SCT031 BKN110 21/19 A3008 RMK AO2 T02070190
K11R 220415Z AUTO 35004KT 10SM BKN031 BKN120 21/19 A3009 RMK AO2 LTG DSNT SE T02110191
K11R 220355Z AUTO 35005KT 10SM BKN035 21/19 A3009 RMK AO2 LTG DSNT SE T02140188
K11R 220335Z AUTO 35004KT 10SM CLR 22/19 A3008 RMK AO2 LTG DSNT N T02150188
K11R 220315Z AUTO 36008KT 10SM CLR 22/19 A3005 RMK AO2 T02150190
K11R 220255Z AUTO 36007KT 10SM CLR 22/19 A3004 RMK AO2 LTG DSNT NW THRU E T02190193
K11R 220235Z AUTO 36011G16KT 10SM SCT041 SCT047 BKN050 22/20 A3002 RMK AO2 LTG DSNT E AND SE T02230198
K11R 220215Z AUTO 36010KT 10SM BKN039 OVC049 23/21 A3005 RMK AO2 LTG DSNT E AND NW T02310205
K11R 220155Z AUTO 05003KT 10SM -RA BKN039 BKN120 24/22 A3004 RMK AO2 LTG DSNT E AND NW T02370218
K11R 220135Z AUTO 01003KT 10SM RA SCT045 SCT070 BKN110 24/22 A3004 RMK AO2 LTG DSNT NW T02380215
K11R 220115Z AUTO 31004KT 10SM RA SCT039 BKN070 OVC100 25/21 A3004 RMK AO2 LTG DSNT SE T02460212
K11R 220055Z AUTO 00000KT 10SM -DZ SCT028 BKN037 OVC049 25/21 A3005 RMK AO2 LTG DSNT SE T02500211
K11R 220035Z AUTO 00000KT 10SM -RA SCT028 OVC035 25/21 A3004 RMK AO2 LTG DSNT SE SW AND NW T02530206
K11R 220015Z AUTO 00000KT 10SM -RA BKN033 BKN044 OVC050 26/21 A3003 RMK AO2 LTG DSNT SW T02550205
K11R 212355Z AUTO 06006KT 10SM BKN050 BKN055 26/20 A3001 RMK AO2 T02570203 10295 20257
K11R 212335Z AUTO 04007KT 010V080 10SM SCT027 BKN033 BKN050 26/20 A2998 RMK AO2 LTG DSNT N AND W T02580203
K11R 212315Z AUTO 04006KT 10SM BKN025 OVC031 26/21 A3000 RMK AO2 LTG DSNT SW T02590205
K11R 212255Z AUTO 04005KT 10SM OVC023 26/20 A3000 RMK AO2 LTG DSNT SW T02600204
K11R 212235Z AUTO 03006G14KT 10SM OVC025 26/20 A3000 RMK AO2 LTG DSNT E T02640204
K11R 212215Z AUTO 01008KT 10SM BKN031 27/21 A3000 RMK AO2 LTG DSNT N T02730205
K11R 212155Z AUTO 01009KT 10SM BKN031 28/21 A3000 RMK AO2 T02750205
K11R 212135Z AUTO 01009KT 10SM SCT031 BKN035 BKN110 28/21 A3000 RMK AO2 LTG DSNT SE THRU W T02820207
K11R 212115Z AUTO 03006KT 10SM BKN029 OVC110 28/21 A3002 RMK AO2 LTG DSNT E T02840206
K11R 212055Z AUTO 01007KT 10SM VCTS SCT029 SCT035 BKN120 29/21 A3003 RMK AO2 T02860205
K11R 212035Z AUTO 03007KT 10SM SCT031 29/20 A3002 RMK AO2 LTG DSNT SE AND S T02870203
K11R 212015Z AUTO 05006KT 10SM CLR 29/20 A3003 RMK AO2 LTG DSNT SE T02920204
K11R 211955Z AUTO 02006KT 10SM CLR 28/20 A3000 RMK AO2 LTG DSNT SE T02840202
K11R 211935Z AUTO 02008KT 10SM CLR 28/20 A3001 RMK AO2 LTG DSNT SE AND S T02800198
K11R 211915Z AUTO 04009KT 020V080 10SM SCT022 28/20 A3003 RMK AO2 LTG DSNT E AND SE T02770195
K11R 211850Z AUTO 01008G16KT 10SM SCT022 27/19 A3003 RMK AO2 LTG DSNT E AND S T02730191
K11R 211835Z AUTO 01009KT 10SM BKN022 27/19 A3004 RMK AO2 LTG DSNT S T02700192
K11R 211815Z AUTO 02009KT 10SM OVC020 26/19 A3004 RMK AO2 LTG DSNT N T02630190
K11R 211755Z AUTO 02009G15KT 330V050 10SM OVC020 26/19 A3005 RMK AO2 LTG DSNT E T02600189 10263 20220
K11R 211735Z AUTO 01010G14KT 10SM OVC018 26/19 A3007 RMK AO2 LTG DSNT E AND SE T02590190
K11R 211715Z AUTO 01008G14KT 10SM OVC018 26/20 A3008 RMK AO2 LTG DSNT E T02590195


Page loaded:  04:57 UTC  |   09:57 PM Pacific  |   10:57 PM Mountain  |   11:57 PM Central  |   12:57 AM Eastern

 

ADVISORIES

FORECASTS

FORECASTS

OBSERVATIONS

USER TOOLS

ABOUT US